Time;durP1;ratioP1;P1;durP2;ratioP2;P2;SDS_P1;SDS_P2;PMS_P1;PMS_P2;Temp;Humidity;BMP_temperature;BMP_pressure;BME280_temperature;BME280_humidity;BME280_pressure;Samples;Min_cycle;Max_cycle;Signal;HPM_P1;HPM_P2
2023/11/17 00:00:31;;;;;;;0.70;0.40;;;;;;;;;;5116572;28;20602;-69
2023/11/17 00:03:01;;;;;;;0.57;0.57;;;;;;;;;;5101073;28;20275;-69
2023/11/17 00:05:30;;;;;;;0.37;0.37;;;;;;;;;;5116995;28;20212;-68
2023/11/17 00:07:58;;;;;;;2.07;0.70;;;;;;;;;;5099111;28;20201;-68
2023/11/17 00:10:27;;;;;;;0.40;0.40;;;;;;;;;;5098914;28;20292;-67
2023/11/17 00:12:55;;;;;;;0.33;0.33;;;;;;;;;;5119531;27;20217;-67
2023/11/17 00:15:23;;;;;;;0.60;0.60;;;;;;;;;;5112106;28;20216;-68
2023/11/17 00:17:52;;;;;;;0.60;0.43;;;;;;;;;;5098274;28;20303;-68
2023/11/17 00:20:22;;;;;;;0.80;0.50;;;;;;;;;;5098547;28;20201;-69
2023/11/17 00:22:51;;;;;;;0.50;0.30;;;;;;;;;;5098490;28;20292;-69
2023/11/17 00:25:19;;;;;;;0.50;0.40;;;;;;;;;;5098246;28;20219;-67
2023/11/17 00:27:47;;;;;;;1.23;0.50;;;;;;;;;;5100641;28;20678;-68
2023/11/17 00:30:17;;;;;;;0.87;0.57;;;;;;;;;;5109742;28;20679;-68
2023/11/17 00:32:45;;;;;;;0.93;0.50;;;;;;;;;;5098055;28;20222;-68
2023/11/17 00:35:14;;;;;;;0.57;0.50;;;;;;;;;;5112159;28;20220;-68
2023/11/17 00:37:44;;;;;;;1.40;0.57;;;;;;;;;;5117772;28;20333;-69
2023/11/17 00:40:12;;;;;;;2.33;0.50;;;;;;;;;;5110545;28;20212;-68
2023/11/17 00:42:40;;;;;;;1.33;0.30;;;;;;;;;;5110494;28;20274;-69
2023/11/17 00:45:10;;;;;;;0.63;0.50;;;;;;;;;;5097131;28;20194;-68
2023/11/17 00:47:38;;;;;;;0.30;0.30;;;;;;;;;;5099951;28;20201;-69
2023/11/17 00:50:11;;;;;;;0.50;0.50;;;;;;;;;;5097486;28;20233;-69
2023/11/17 00:52:41;;;;;;;0.77;0.30;;;;;;;;;;5097897;28;20229;-69
2023/11/17 00:55:13;;;;;;;2.67;0.50;;;;;;;;;;5097229;28;20244;-68
2023/11/17 00:57:42;;;;;;;3.20;0.47;;;;;;;;;;5101202;28;20228;-69
2023/11/17 01:00:12;;;;;;;0.30;0.30;;;;;;;;;;5101295;28;20211;-68
2023/11/17 01:02:41;;;;;;;0.30;0.30;;;;;;;;;;5100992;28;20221;-68
2023/11/17 01:05:10;;;;;;;0.43;0.43;;;;;;;;;;5103512;28;20566;-68
2023/11/17 01:07:38;;;;;;;0.73;0.37;;;;;;;;;;5112949;28;20197;-69
2023/11/17 01:10:07;;;;;;;0.37;0.37;;;;;;;;;;5117121;28;20229;-70
2023/11/17 01:12:38;;;;;;;0.63;0.33;;;;;;;;;;5106837;28;20770;-69
2023/11/17 01:15:07;;;;;;;1.20;0.50;;;;;;;;;;5102246;28;20228;-69
2023/11/17 01:17:37;;;;;;;1.00;0.47;;;;;;;;;;5098086;28;20197;-69
2023/11/17 01:20:09;;;;;;;0.40;0.40;;;;;;;;;;5113020;28;20227;-68
2023/11/17 01:22:38;;;;;;;0.40;0.40;;;;;;;;;;5101252;28;20264;-68
2023/11/17 01:25:09;;;;;;;0.70;0.50;;;;;;;;;;5116741;28;20201;-68
2023/11/17 01:27:40;;;;;;;0.50;0.50;;;;;;;;;;5117930;28;20668;-69
2023/11/17 01:30:09;;;;;;;2.63;0.40;;;;;;;;;;5114551;28;20283;-68
2023/11/17 01:32:37;;;;;;;0.40;0.40;;;;;;;;;;5116528;28;20591;-68
2023/11/17 01:35:06;;;;;;;0.50;0.50;;;;;;;;;;5111058;28;20700;-69
2023/11/17 01:37:35;;;;;;;1.70;0.50;;;;;;;;;;5097764;28;20205;-68
2023/11/17 01:40:05;;;;;;;2.20;0.60;;;;;;;;;;5096506;28;20656;-68
2023/11/17 01:42:33;;;;;;;0.47;0.40;;;;;;;;;;5106424;28;20728;-69
2023/11/17 01:45:07;;;;;;;0.40;0.40;;;;;;;;;;5106999;28;20276;-69
2023/11/17 01:47:37;;;;;;;1.37;0.60;;;;;;;;;;5102168;28;20321;-69
2023/11/17 01:50:07;;;;;;;0.50;0.50;;;;;;;;;;5102515;28;20273;-69
2023/11/17 01:52:35;;;;;;;0.53;0.40;;;;;;;;;;5117440;28;20237;-69
2023/11/17 01:55:05;;;;;;;4.17;0.63;;;;;;;;;;5100496;28;20320;-69
2023/11/17 01:57:37;;;;;;;1.20;0.50;;;;;;;;;;5117776;28;20201;-69
2023/11/17 02:00:13;;;;;;;0.40;0.30;;;;;;;;;;5114940;28;20329;-67
2023/11/17 02:02:44;;;;;;;0.33;0.33;;;;;;;;;;5113153;28;20231;-68
2023/11/17 02:05:14;;;;;;;1.20;0.40;;;;;;;;;;5099395;28;20296;-69
2023/11/17 02:07:50;;;;;;;0.23;0.20;;;;;;;;;;5100550;28;20202;-68
2023/11/17 02:10:23;;;;;;;0.30;0.30;;;;;;;;;;5103924;28;20215;-68
2023/11/17 02:12:54;;;;;;;0.30;0.30;;;;;;;;;;5109391;28;20229;-69
2023/11/17 02:15:26;;;;;;;0.30;0.30;;;;;;;;;;5101672;28;20278;-68
2023/11/17 02:17:56;;;;;;;1.70;0.37;;;;;;;;;;5100279;28;20653;-68
2023/11/17 02:20:26;;;;;;;0.43;0.40;;;;;;;;;;5100590;28;20201;-68
2023/11/17 02:22:59;;;;;;;0.20;0.20;;;;;;;;;;5100564;28;20308;-68
2023/11/17 02:25:32;;;;;;;0.37;0.37;;;;;;;;;;5100645;28;20712;-68
2023/11/17 02:28:10;;;;;;;0.20;0.20;;;;;;;;;;5113382;28;20212;-68
2023/11/17 02:30:41;;;;;;;0.63;0.40;;;;;;;;;;5118883;28;20284;-68
2023/11/17 02:33:11;;;;;;;1.70;0.40;;;;;;;;;;5118624;28;20220;-68
2023/11/17 02:35:43;;;;;;;1.63;0.40;;;;;;;;;;5119722;28;20217;-68
2023/11/17 02:38:15;;;;;;;1.47;0.70;;;;;;;;;;5121011;28;20209;-69
2023/11/17 02:40:45;;;;;;;0.50;0.40;;;;;;;;;;5119919;28;20291;-68
2023/11/17 02:43:13;;;;;;;0.40;0.40;;;;;;;;;;5111347;27;20684;-68
2023/11/17 02:45:45;;;;;;;0.67;0.50;;;;;;;;;;5099024;28;20202;-69
2023/11/17 02:48:21;;;;;;;0.53;0.43;;;;;;;;;;5120506;28;20219;-68
2023/11/17 02:51:17;;;;;;;0.30;0.30;;;;;;;;;;5119328;28;20231;-68
2023/11/17 02:53:49;;;;;;;3.57;0.57;;;;;;;;;;5099411;28;20672;-68
2023/11/17 02:56:19;;;;;;;0.47;0.47;;;;;;;;;;5108042;28;20264;-68
2023/11/17 02:58:48;;;;;;;0.33;0.33;;;;;;;;;;5120314;28;20201;-69
2023/11/17 03:01:18;;;;;;;1.00;0.40;;;;;;;;;;5116126;28;20221;-68
2023/11/17 03:03:47;;;;;;;0.67;0.30;;;;;;;;;;5120192;28;20215;-68
2023/11/17 03:06:16;;;;;;;0.40;0.40;;;;;;;;;;5119345;28;20197;-68
2023/11/17 03:08:44;;;;;;;0.40;0.40;;;;;;;;;;5119064;28;20268;-68
2023/11/17 03:11:12;;;;;;;0.50;0.50;;;;;;;;;;5103851;28;20222;-68
2023/11/17 03:13:41;;;;;;;2.17;0.50;;;;;;;;;;5099188;28;20224;-68
2023/11/17 03:16:09;;;;;;;0.40;0.40;;;;;;;;;;5104187;28;20224;-68
2023/11/17 03:18:39;;;;;;;0.30;0.30;;;;;;;;;;5099126;28;20205;-68
2023/11/17 03:21:07;;;;;;;0.20;0.20;;;;;;;;;;5113321;28;20711;-68
2023/11/17 03:23:38;;;;;;;0.20;0.20;;;;;;;;;;5118665;28;20205;-68
2023/11/17 03:26:06;;;;;;;0.30;0.30;;;;;;;;;;5118909;28;20208;-68
2023/11/17 03:28:35;;;;;;;0.93;0.50;;;;;;;;;;5120125;28;20219;-68
2023/11/17 03:31:04;;;;;;;0.50;0.47;;;;;;;;;;5115596;28;20201;-67
2023/11/17 03:33:33;;;;;;;2.17;0.40;;;;;;;;;;5118509;28;20201;-68
2023/11/17 03:36:02;;;;;;;0.40;0.40;;;;;;;;;;5105169;28;20229;-69
2023/11/17 03:38:31;;;;;;;0.67;0.50;;;;;;;;;;5099053;28;20201;-69
2023/11/17 03:40:59;;;;;;;1.70;0.37;;;;;;;;;;5111699;28;20215;-69
2023/11/17 03:43:28;;;;;;;0.30;0.30;;;;;;;;;;5118525;28;20200;-69
2023/11/17 03:45:56;;;;;;;1.70;0.43;;;;;;;;;;5104659;28;20197;-69
2023/11/17 03:48:24;;;;;;;0.40;0.40;;;;;;;;;;5097634;28;20255;-69
2023/11/17 03:50:53;;;;;;;1.40;0.47;;;;;;;;;;5098299;28;20316;-69
2023/11/17 03:53:22;;;;;;;0.60;0.43;;;;;;;;;;5105043;28;20280;-69
2023/11/17 03:55:53;;;;;;;0.60;0.60;;;;;;;;;;5098518;28;20232;-70
2023/11/17 03:58:21;;;;;;;0.30;0.30;;;;;;;;;;5102381;28;20284;-70
2023/11/17 04:00:50;;;;;;;0.40;0.40;;;;;;;;;;5097469;28;20280;-70
2023/11/17 04:03:19;;;;;;;0.40;0.40;;;;;;;;;;5098417;28;20237;-69
2023/11/17 04:05:48;;;;;;;0.83;0.60;;;;;;;;;;5109857;28;20197;-69
2023/11/17 04:08:17;;;;;;;0.30;0.30;;;;;;;;;;5111478;28;20225;-69
2023/11/17 04:10:47;;;;;;;0.70;0.60;;;;;;;;;;5113482;28;20201;-69
2023/11/17 04:13:15;;;;;;;1.30;0.57;;;;;;;;;;5118045;28;20232;-69
2023/11/17 04:15:43;;;;;;;0.40;0.40;;;;;;;;;;5098805;28;20217;-70
2023/11/17 04:18:12;;;;;;;0.30;0.30;;;;;;;;;;5102921;27;20231;-70
2023/11/17 04:20:40;;;;;;;1.10;0.47;;;;;;;;;;5108362;28;20693;-69
2023/11/17 04:23:08;;;;;;;1.40;0.63;;;;;;;;;;5098647;28;20308;-69
2023/11/17 04:25:36;;;;;;;0.50;0.50;;;;;;;;;;5098720;28;20568;-69
2023/11/17 04:28:07;;;;;;;0.30;0.30;;;;;;;;;;5106293;28;20192;-69
2023/11/17 04:30:35;;;;;;;4.80;0.73;;;;;;;;;;5117770;28;20197;-69
2023/11/17 04:33:03;;;;;;;0.30;0.30;;;;;;;;;;5117380;28;20327;-69
2023/11/17 04:35:32;;;;;;;0.60;0.40;;;;;;;;;;5117275;28;20287;-69
2023/11/17 04:38:00;;;;;;;0.30;0.30;;;;;;;;;;5118855;28;20209;-69
2023/11/17 04:40:28;;;;;;;0.20;0.20;;;;;;;;;;5117763;28;20284;-69
2023/11/17 04:42:57;;;;;;;0.30;0.30;;;;;;;;;;5110687;28;20290;-69
2023/11/17 04:45:26;;;;;;;1.70;0.30;;;;;;;;;;5107761;28;20205;-69
2023/11/17 04:47:55;;;;;;;0.67;0.40;;;;;;;;;;5101601;28;20213;-69
2023/11/17 04:50:23;;;;;;;0.50;0.40;;;;;;;;;;5101710;28;20208;-69
2023/11/17 04:52:51;;;;;;;0.47;0.30;;;;;;;;;;5118277;28;20304;-69
2023/11/17 04:55:21;;;;;;;0.50;0.50;;;;;;;;;;5117204;28;20208;-69
2023/11/17 04:57:49;;;;;;;0.40;0.37;;;;;;;;;;5114469;28;20579;-69
2023/11/17 05:00:17;;;;;;;0.70;0.70;;;;;;;;;;5104555;28;20205;-67
2023/11/17 05:02:47;;;;;;;0.47;0.47;;;;;;;;;;5117914;28;20224;-69
2023/11/17 05:05:17;;;;;;;0.30;0.30;;;;;;;;;;5114110;28;20200;-69
2023/11/17 05:07:45;;;;;;;0.93;0.43;;;;;;;;;;5097907;28;20265;-69
2023/11/17 05:10:15;;;;;;;0.50;0.50;;;;;;;;;;5105530;28;20280;-69
2023/11/17 05:12:43;;;;;;;1.43;0.70;;;;;;;;;;5118354;28;20224;-69
2023/11/17 05:15:13;;;;;;;1.60;0.60;;;;;;;;;;5107967;28;20276;-69
2023/11/17 05:17:48;;;;;;;0.93;0.93;;;;;;;;;;5093794;28;20298;-68
2023/11/17 05:20:28;;;;;;;1.20;0.40;;;;;;;;;;5094307;28;20205;-66
2023/11/17 05:23:00;;;;;;;0.40;0.40;;;;;;;;;;5115208;28;20219;-69
2023/11/17 05:25:32;;;;;;;0.47;0.47;;;;;;;;;;5100491;28;20286;-67
2023/11/17 05:28:05;;;;;;;0.40;0.40;;;;;;;;;;5097753;28;20233;-69
2023/11/17 05:30:36;;;;;;;0.30;0.30;;;;;;;;;;5099952;28;20233;-69
2023/11/17 05:33:04;;;;;;;0.60;0.60;;;;;;;;;;5110900;28;20722;-68
2023/11/17 05:35:37;;;;;;;1.07;0.50;;;;;;;;;;5098027;28;20281;-68
2023/11/17 05:38:05;;;;;;;0.53;0.53;;;;;;;;;;5097598;28;20228;-68
2023/11/17 05:40:34;;;;;;;0.37;0.37;;;;;;;;;;5097446;28;20202;-68
2023/11/17 05:43:05;;;;;;;0.60;0.60;;;;;;;;;;5107244;28;20222;-68
2023/11/17 05:45:34;;;;;;;1.17;0.40;;;;;;;;;;5098899;28;20592;-68
2023/11/17 05:48:05;;;;;;;0.57;0.57;;;;;;;;;;5101457;28;20201;-68
2023/11/17 05:50:36;;;;;;;0.70;0.70;;;;;;;;;;5101464;28;20247;-69
2023/11/17 05:53:04;;;;;;;0.90;0.60;;;;;;;;;;5105464;28;20220;-67
2023/11/17 05:55:33;;;;;;;3.57;1.30;;;;;;;;;;5120481;28;20197;-69
2023/11/17 05:58:02;;;;;;;0.80;0.67;;;;;;;;;;5121674;28;20231;-68
2023/11/17 06:00:32;;;;;;;3.10;1.90;;;;;;;;;;5110146;28;20563;-68
2023/11/17 06:03:19;;;;;;;1.17;1.07;;;;;;;;;;5105887;28;20228;-69
2023/11/17 06:06:00;;;;;;;0.63;0.63;;;;;;;;;;5097654;28;20205;-69
2023/11/17 06:08:31;;;;;;;0.70;0.70;;;;;;;;;;5098282;28;20205;-69
2023/11/17 06:11:00;;;;;;;3.20;1.33;;;;;;;;;;5102076;28;20293;-70
2023/11/17 06:13:29;;;;;;;2.07;1.07;;;;;;;;;;5100893;28;20288;-70
2023/11/17 06:15:57;;;;;;;1.67;0.83;;;;;;;;;;5110001;28;20217;-70
2023/11/17 06:18:30;;;;;;;0.70;0.70;;;;;;;;;;5099161;28;20264;-69
2023/11/17 06:21:04;;;;;;;2.00;0.60;;;;;;;;;;5100647;28;20549;-69
2023/11/17 06:23:33;;;;;;;2.00;0.97;;;;;;;;;;5100684;28;20212;-68
2023/11/17 06:26:01;;;;;;;1.53;0.70;;;;;;;;;;5100451;28;20696;-65
2023/11/17 06:28:29;;;;;;;1.53;0.60;;;;;;;;;;5099804;28;20626;-65
2023/11/17 06:30:58;;;;;;;2.73;1.43;;;;;;;;;;5107736;28;20196;-65
2023/11/17 06:33:26;;;;;;;2.20;1.40;;;;;;;;;;5107555;28;20201;-65
2023/11/17 06:35:55;;;;;;;0.83;0.80;;;;;;;;;;5117320;27;20201;-65
2023/11/17 06:38:24;;;;;;;0.70;0.60;;;;;;;;;;5105094;27;20222;-65
2023/11/17 06:40:53;;;;;;;1.33;0.70;;;;;;;;;;5101726;28;20216;-65
2023/11/17 06:43:22;;;;;;;1.17;0.73;;;;;;;;;;5104149;27;20212;-65
2023/11/17 06:45:52;;;;;;;0.77;0.77;;;;;;;;;;5105597;28;20192;-65
2023/11/17 06:48:20;;;;;;;0.53;0.53;;;;;;;;;;5107624;28;20202;-65
2023/11/17 06:50:49;;;;;;;1.43;1.00;;;;;;;;;;5114094;28;20717;-65
2023/11/17 06:53:18;;;;;;;1.83;1.30;;;;;;;;;;5116859;27;20209;-65
2023/11/17 06:55:48;;;;;;;0.70;0.70;;;;;;;;;;5120405;27;20205;-65
2023/11/17 06:58:16;;;;;;;1.73;0.80;;;;;;;;;;5103527;28;20227;-65
2023/11/17 07:00:46;;;;;;;1.77;1.07;;;;;;;;;;5099777;28;20207;-65
2023/11/17 07:03:14;;;;;;;1.80;0.80;;;;;;;;;;5103622;28;20289;-65
2023/11/17 07:05:43;;;;;;;2.67;1.43;;;;;;;;;;5115171;28;20198;-65
2023/11/17 07:08:12;;;;;;;2.63;0.93;;;;;;;;;;5101886;28;20290;-65
2023/11/17 07:10:43;;;;;;;1.83;1.10;;;;;;;;;;5120278;27;20635;-65
2023/11/17 07:13:13;;;;;;;2.77;1.00;;;;;;;;;;5119088;27;20235;-65
2023/11/17 07:15:42;;;;;;;3.27;0.90;;;;;;;;;;5119504;28;20204;-66
2023/11/17 07:18:11;;;;;;;2.10;0.57;;;;;;;;;;5109108;28;20225;-65
2023/11/17 07:20:40;;;;;;;5.83;0.70;;;;;;;;;;5099363;28;20209;-65
2023/11/17 07:23:08;;;;;;;0.60;0.60;;;;;;;;;;5099139;28;20293;-65
2023/11/17 07:25:45;;;;;;;1.00;0.73;;;;;;;;;;5115673;28;20659;-65
2023/11/17 07:28:15;;;;;;;0.53;0.50;;;;;;;;;;5101662;28;20204;-65
2023/11/17 07:30:44;;;;;;;0.63;0.47;;;;;;;;;;5113365;28;20201;-65
2023/11/17 07:33:16;;;;;;;0.50;0.50;;;;;;;;;;5118525;28;20250;-65
2023/11/17 07:35:45;;;;;;;2.87;0.70;;;;;;;;;;5117398;28;20256;-65
2023/11/17 07:38:13;;;;;;;1.23;0.80;;;;;;;;;;5108489;28;20715;-65
2023/11/17 07:40:42;;;;;;;2.00;0.90;;;;;;;;;;5109072;28;20296;-64
2023/11/17 07:43:11;;;;;;;0.63;0.60;;;;;;;;;;5118524;28;20205;-65
2023/11/17 07:45:40;;;;;;;1.00;0.73;;;;;;;;;;5119685;28;20237;-65
2023/11/17 07:48:09;;;;;;;0.70;0.70;;;;;;;;;;5118205;28;20523;-65
2023/11/17 07:50:39;;;;;;;0.60;0.60;;;;;;;;;;5118246;28;20755;-65
2023/11/17 07:53:08;;;;;;;2.50;0.70;;;;;;;;;;5118353;28;20759;-65
2023/11/17 07:55:36;;;;;;;1.37;0.90;;;;;;;;;;5109196;28;20197;-65
2023/11/17 07:58:05;;;;;;;2.03;0.70;;;;;;;;;;5115909;27;20225;-65
2023/11/17 08:00:34;;;;;;;2.10;1.07;;;;;;;;;;5099285;28;20233;-65
2023/11/17 08:03:04;;;;;;;0.60;0.60;;;;;;;;;;5109348;28;20225;-65
2023/11/17 08:05:33;;;;;;;2.10;0.70;;;;;;;;;;5116599;28;20208;-65
2023/11/17 08:08:01;;;;;;;0.47;0.47;;;;;;;;;;5101795;28;20284;-65
2023/11/17 08:10:30;;;;;;;1.50;0.97;;;;;;;;;;5098149;28;20206;-65
2023/11/17 08:12:58;;;;;;;0.63;0.63;;;;;;;;;;5098722;28;20233;-65
2023/11/17 08:15:29;;;;;;;0.60;0.60;;;;;;;;;;5102998;28;20201;-65
2023/11/17 08:17:57;;;;;;;1.93;0.70;;;;;;;;;;5098230;28;20230;-65
2023/11/17 08:20:31;;;;;;;1.53;1.00;;;;;;;;;;5098350;28;20917;-65
2023/11/17 08:22:59;;;;;;;0.93;0.80;;;;;;;;;;5098624;28;20264;-65
2023/11/17 08:25:29;;;;;;;0.93;0.73;;;;;;;;;;5115015;28;20237;-66
2023/11/17 08:27:58;;;;;;;0.77;0.50;;;;;;;;;;5098023;28;20202;-65
2023/11/17 08:30:27;;;;;;;0.57;0.57;;;;;;;;;;5101199;28;20200;-65
2023/11/17 08:33:09;;;;;;;1.27;0.70;;;;;;;;;;5117433;28;20235;-65
2023/11/17 08:35:39;;;;;;;1.27;0.60;;;;;;;;;;5098552;28;20215;-65
2023/11/17 08:38:07;;;;;;;2.03;0.90;;;;;;;;;;5113571;28;20307;-65
2023/11/17 08:40:35;;;;;;;1.43;0.60;;;;;;;;;;5098085;28;20756;-65
2023/11/17 08:43:05;;;;;;;2.63;1.03;;;;;;;;;;5096781;28;20222;-65
2023/11/17 08:45:33;;;;;;;1.00;0.80;;;;;;;;;;5097431;28;20644;-65
2023/11/17 08:48:02;;;;;;;2.20;1.40;;;;;;;;;;5097275;28;20193;-65
2023/11/17 08:50:31;;;;;;;2.33;1.47;;;;;;;;;;5097980;28;20229;-65
2023/11/17 08:53:01;;;;;;;2.13;1.30;;;;;;;;;;5097235;28;20252;-65
2023/11/17 08:55:29;;;;;;;0.90;0.80;;;;;;;;;;5097349;28;20572;-66
2023/11/17 08:57:58;;;;;;;0.77;0.60;;;;;;;;;;5101060;28;20213;-65
2023/11/17 09:00:26;;;;;;;0.73;0.70;;;;;;;;;;5100035;28;20664;-65
2023/11/17 09:02:54;;;;;;;1.50;0.77;;;;;;;;;;5100724;28;20217;-65
2023/11/17 09:05:23;;;;;;;1.13;0.80;;;;;;;;;;5097275;28;20198;-65
2023/11/17 09:07:52;;;;;;;0.70;0.70;;;;;;;;;;5108401;28;20197;-65
2023/11/17 09:10:26;;;;;;;0.73;0.60;;;;;;;;;;5102083;28;20209;-65
2023/11/17 09:12:55;;;;;;;1.03;0.67;;;;;;;;;;5113568;28;20213;-65
2023/11/17 09:15:24;;;;;;;6.70;0.53;;;;;;;;;;5101077;28;20205;-65
2023/11/17 09:17:53;;;;;;;0.50;0.50;;;;;;;;;;5097166;28;20202;-65
2023/11/17 09:20:23;;;;;;;1.03;0.70;;;;;;;;;;5098375;28;20653;-65
2023/11/17 09:22:52;;;;;;;1.30;1.20;;;;;;;;;;5112938;28;20270;-65
2023/11/17 09:25:23;;;;;;;1.57;1.10;;;;;;;;;;5117629;27;20205;-65
2023/11/17 09:27:53;;;;;;;0.60;0.60;;;;;;;;;;5107178;28;20200;-65
2023/11/17 09:30:21;;;;;;;3.73;0.90;;;;;;;;;;5101324;28;20208;-65
2023/11/17 09:32:50;;;;;;;1.63;0.97;;;;;;;;;;5100621;28;20304;-65
2023/11/17 09:35:21;;;;;;;0.50;0.50;;;;;;;;;;5101615;28;20301;-65
2023/11/17 09:37:50;;;;;;;0.53;0.53;;;;;;;;;;5112851;28;20227;-65
2023/11/17 09:40:21;;;;;;;1.40;0.70;;;;;;;;;;5121221;28;20255;-65
2023/11/17 09:42:51;;;;;;;1.10;0.70;;;;;;;;;;5116517;27;20587;-65
2023/11/17 09:45:24;;;;;;;2.27;0.63;;;;;;;;;;5117620;28;20216;-65
2023/11/17 09:47:54;;;;;;;2.73;0.77;;;;;;;;;;5113259;28;20222;-65
2023/11/17 09:50:24;;;;;;;1.10;0.77;;;;;;;;;;5112135;28;20667;-65
2023/11/17 09:52:53;;;;;;;0.50;0.50;;;;;;;;;;5108125;28;20227;-65
2023/11/17 09:55:27;;;;;;;2.87;0.83;;;;;;;;;;5101315;28;20277;-65
2023/11/17 09:58:02;;;;;;;0.57;0.50;;;;;;;;;;5104520;28;20235;-65
2023/11/17 10:00:31;;;;;;;0.97;0.80;;;;;;;;;;5117460;28;20248;-65
2023/11/17 10:03:01;;;;;;;0.93;0.90;;;;;;;;;;5105423;28;20316;-65
2023/11/17 10:05:30;;;;;;;1.43;0.87;;;;;;;;;;5101232;28;20262;-65
2023/11/17 10:08:00;;;;;;;0.73;0.73;;;;;;;;;;5104414;28;20197;-65
2023/11/17 10:10:30;;;;;;;4.17;0.90;;;;;;;;;;5100820;28;20201;-65
2023/11/17 10:13:00;;;;;;;1.33;0.97;;;;;;;;;;5101010;28;20217;-65
2023/11/17 10:15:29;;;;;;;0.80;0.80;;;;;;;;;;5105397;28;20201;-65
2023/11/17 10:18:05;;;;;;;4.17;1.17;;;;;;;;;;5100783;28;20217;-65
2023/11/17 10:20:34;;;;;;;3.63;1.20;;;;;;;;;;5100847;28;20365;-64
2023/11/17 10:23:04;;;;;;;1.23;1.13;;;;;;;;;;5105032;28;20225;-65
2023/11/17 10:25:36;;;;;;;2.73;1.60;;;;;;;;;;5112845;28;20209;-65
2023/11/17 10:28:04;;;;;;;3.03;1.73;;;;;;;;;;5110473;28;21060;-65
2023/11/17 10:30:37;;;;;;;1.50;1.00;;;;;;;;;;5100038;28;20202;-65
2023/11/17 10:33:13;;;;;;;1.10;1.00;;;;;;;;;;5098656;28;20213;-65
2023/11/17 10:35:43;;;;;;;1.57;1.33;;;;;;;;;;5100735;28;20205;-65
2023/11/17 10:38:15;;;;;;;3.47;1.23;;;;;;;;;;5099754;28;20660;-65
2023/11/17 10:40:45;;;;;;;0.80;0.80;;;;;;;;;;5100281;28;20579;-65
2023/11/17 10:43:14;;;;;;;0.80;0.80;;;;;;;;;;5110758;28;20201;-65
2023/11/17 10:45:43;;;;;;;1.63;0.90;;;;;;;;;;5120918;28;20216;-65
2023/11/17 10:48:13;;;;;;;1.87;0.90;;;;;;;;;;5103998;28;20216;-65
2023/11/17 10:50:43;;;;;;;3.10;0.90;;;;;;;;;;5107155;28;20232;-65
2023/11/17 10:53:21;;;;;;;0.73;0.67;;;;;;;;;;5105260;28;20209;-65
2023/11/17 10:55:53;;;;;;;0.60;0.60;;;;;;;;;;5111026;28;20207;-65
2023/11/17 10:58:21;;;;;;;1.93;1.00;;;;;;;;;;5107539;28;20205;-65
2023/11/17 11:00:50;;;;;;;3.90;1.00;;;;;;;;;;5103841;28;20228;-65
2023/11/17 11:03:18;;;;;;;0.93;0.80;;;;;;;;;;5101673;28;20265;-65
2023/11/17 11:05:47;;;;;;;1.30;0.87;;;;;;;;;;5105709;28;20254;-64
2023/11/17 11:08:18;;;;;;;1.80;0.70;;;;;;;;;;5119057;28;20201;-65
2023/11/17 11:10:53;;;;;;;0.70;0.70;;;;;;;;;;5119003;28;20717;-65
2023/11/17 11:13:28;;;;;;;0.90;0.90;;;;;;;;;;5119373;28;20197;-65
2023/11/17 11:16:00;;;;;;;1.47;1.10;;;;;;;;;;5107527;28;20258;-64
2023/11/17 11:18:32;;;;;;;0.83;0.83;;;;;;;;;;5118709;28;20193;-65
2023/11/17 11:21:00;;;;;;;1.80;0.90;;;;;;;;;;5111739;28;20224;-65
2023/11/17 11:23:29;;;;;;;1.50;1.10;;;;;;;;;;5110993;28;20197;-65
2023/11/17 11:26:00;;;;;;;1.03;0.90;;;;;;;;;;5120122;28;20201;-65
2023/11/17 11:28:29;;;;;;;1.97;0.73;;;;;;;;;;5115516;28;20200;-65
2023/11/17 11:30:59;;;;;;;3.47;1.63;;;;;;;;;;5119654;28;20204;-65
2023/11/17 11:33:30;;;;;;;2.17;1.03;;;;;;;;;;5103985;28;20216;-65
2023/11/17 11:35:58;;;;;;;2.70;0.80;;;;;;;;;;5098856;28;20212;-65
2023/11/17 11:38:27;;;;;;;2.00;1.03;;;;;;;;;;5114835;28;20201;-65
2023/11/17 11:40:56;;;;;;;2.70;0.90;;;;;;;;;;5119600;27;20235;-65
2023/11/17 11:43:27;;;;;;;0.70;0.70;;;;;;;;;;5100782;27;20201;-65
2023/11/17 11:45:56;;;;;;;1.87;1.17;;;;;;;;;;5099065;28;20665;-65
2023/11/17 11:48:30;;;;;;;0.90;0.90;;;;;;;;;;5098639;28;20280;-64
2023/11/17 11:50:59;;;;;;;2.77;1.10;;;;;;;;;;5113906;27;20357;-65
2023/11/17 11:53:33;;;;;;;1.80;0.90;;;;;;;;;;5126528;27;20200;-64
2023/11/17 11:56:02;;;;;;;3.10;1.13;;;;;;;;;;5121706;27;20206;-65
2023/11/17 11:58:32;;;;;;;1.63;0.87;;;;;;;;;;5114103;27;20197;-65
2023/11/17 12:01:02;;;;;;;1.00;1.00;;;;;;;;;;5123720;27;20225;-65
2023/11/17 12:03:35;;;;;;;5.93;1.70;;;;;;;;;;5120357;27;20203;-65
2023/11/17 12:06:04;;;;;;;1.00;0.90;;;;;;;;;;5122368;27;20640;-65
2023/11/17 12:08:32;;;;;;;2.23;1.00;;;;;;;;;;5120917;27;20207;-64
2023/11/17 12:11:10;;;;;;;1.00;0.80;;;;;;;;;;5127050;27;20201;-64
2023/11/17 12:13:42;;;;;;;1.07;0.97;;;;;;;;;;5120941;27;20227;-65
2023/11/17 12:16:15;;;;;;;2.43;0.90;;;;;;;;;;5121010;27;20207;-65
2023/11/17 12:18:48;;;;;;;1.77;0.93;;;;;;;;;;5129668;27;20284;-64
2023/11/17 12:21:17;;;;;;;1.30;0.80;;;;;;;;;;5126318;27;20220;-65
2023/11/17 12:23:45;;;;;;;1.83;0.90;;;;;;;;;;5123753;27;20283;-65
2023/11/17 12:26:14;;;;;;;1.27;0.90;;;;;;;;;;5123869;27;20705;-64
2023/11/17 12:28:44;;;;;;;1.80;1.23;;;;;;;;;;5123427;27;20326;-65
2023/11/17 12:31:14;;;;;;;2.73;0.90;;;;;;;;;;5124091;27;20216;-65
2023/11/17 12:33:43;;;;;;;0.70;0.70;;;;;;;;;;5125173;27;20201;-64
2023/11/17 12:36:15;;;;;;;1.97;0.87;;;;;;;;;;5119428;27;20282;-65
2023/11/17 12:38:44;;;;;;;1.00;0.90;;;;;;;;;;5120178;27;20731;-64
2023/11/17 12:41:13;;;;;;;4.00;1.30;;;;;;;;;;5122498;27;20234;-65
2023/11/17 12:43:42;;;;;;;2.57;1.10;;;;;;;;;;5127009;27;20235;-65
2023/11/17 12:46:12;;;;;;;3.13;1.20;;;;;;;;;;5125118;27;20196;-65
2023/11/17 12:48:41;;;;;;;0.80;0.80;;;;;;;;;;5123026;27;20228;-65
2023/11/17 12:51:10;;;;;;;0.87;0.60;;;;;;;;;;5121796;27;20231;-65
2023/11/17 12:53:40;;;;;;;0.97;0.80;;;;;;;;;;5124722;27;20200;-65
2023/11/17 12:56:19;;;;;;;1.43;1.03;;;;;;;;;;5123866;27;20534;-65
2023/11/17 12:58:47;;;;;;;1.73;1.00;;;;;;;;;;5104565;27;20229;-65
2023/11/17 13:01:19;;;;;;;2.40;1.03;;;;;;;;;;5100111;28;20359;-65
2023/11/17 13:03:48;;;;;;;1.03;0.80;;;;;;;;;;5115787;28;20254;-65
2023/11/17 13:06:18;;;;;;;3.67;1.07;;;;;;;;;;5107748;28;20211;-65
2023/11/17 13:08:47;;;;;;;1.90;1.00;;;;;;;;;;5116404;28;20287;-65
2023/11/17 13:11:15;;;;;;;1.23;1.17;;;;;;;;;;5118211;28;20221;-65
2023/11/17 13:13:44;;;;;;;3.57;1.33;;;;;;;;;;5116278;28;20201;-65
2023/11/17 13:16:14;;;;;;;2.10;1.53;;;;;;;;;;5113130;28;20209;-65
2023/11/17 13:18:45;;;;;;;3.00;1.07;;;;;;;;;;5116972;28;20197;-64
2023/11/17 13:21:15;;;;;;;1.00;1.00;;;;;;;;;;5109671;28;20233;-65
2023/11/17 13:23:44;;;;;;;2.20;0.90;;;;;;;;;;5097051;28;20771;-65
2023/11/17 13:26:14;;;;;;;1.37;1.00;;;;;;;;;;5116804;28;20635;-65
2023/11/17 13:28:43;;;;;;;1.53;1.43;;;;;;;;;;5099626;28;20216;-65
2023/11/17 13:31:19;;;;;;;1.40;1.30;;;;;;;;;;5117258;28;20220;-65
2023/11/17 13:33:52;;;;;;;1.70;1.20;;;;;;;;;;5115819;28;20288;-65
2023/11/17 13:36:24;;;;;;;2.20;1.47;;;;;;;;;;5110371;28;20201;-65
2023/11/17 13:39:10;;;;;;;1.70;1.60;;;;;;;;;;5097408;28;20226;-65
2023/11/17 13:41:38;;;;;;;2.40;0.90;;;;;;;;;;5104673;28;20238;-65
2023/11/17 13:44:07;;;;;;;1.50;0.90;;;;;;;;;;5115621;28;20630;-64
2023/11/17 13:46:55;;;;;;;0.80;0.80;;;;;;;;;;5115602;28;20280;-64
2023/11/17 13:49:25;;;;;;;1.07;0.97;;;;;;;;;;5117685;28;20237;-64
2023/11/17 13:51:56;;;;;;;1.63;0.93;;;;;;;;;;5104797;28;20248;-64
2023/11/17 13:54:27;;;;;;;2.50;0.90;;;;;;;;;;5112632;28;20215;-64
2023/11/17 13:56:56;;;;;;;1.03;0.87;;;;;;;;;;5097931;28;20242;-64
2023/11/17 13:59:25;;;;;;;2.00;1.20;;;;;;;;;;5099651;28;20291;-64
2023/11/17 14:01:56;;;;;;;1.77;0.83;;;;;;;;;;5100082;28;20224;-64
2023/11/17 14:04:29;;;;;;;2.53;0.80;;;;;;;;;;5097030;28;20684;-64
2023/11/17 14:06:58;;;;;;;1.33;0.87;;;;;;;;;;5102593;28;20208;-64
2023/11/17 14:09:27;;;;;;;0.50;0.50;;;;;;;;;;5101204;28;20208;-64
2023/11/17 14:11:57;;;;;;;0.77;0.77;;;;;;;;;;5100804;28;20216;-64
2023/11/17 14:14:26;;;;;;;0.60;0.60;;;;;;;;;;5100975;28;20630;-64
2023/11/17 14:16:55;;;;;;;0.60;0.60;;;;;;;;;;5105171;28;20576;-64
2023/11/17 14:19:25;;;;;;;0.80;0.80;;;;;;;;;;5100921;28;20205;-64
2023/11/17 14:21:55;;;;;;;1.47;0.80;;;;;;;;;;5112403;28;20224;-64
2023/11/17 14:24:24;;;;;;;0.90;0.80;;;;;;;;;;5112127;28;20206;-64
2023/11/17 14:26:55;;;;;;;1.00;0.60;;;;;;;;;;5106695;28;20235;-64
2023/11/17 14:29:27;;;;;;;2.70;0.90;;;;;;;;;;5106359;28;21777;-64
2023/11/17 14:31:56;;;;;;;3.57;0.80;;;;;;;;;;5119926;28;20304;-64
2023/11/17 14:34:26;;;;;;;1.13;0.90;;;;;;;;;;5120794;28;20287;-64
2023/11/17 14:36:57;;;;;;;1.03;0.93;;;;;;;;;;5119901;28;20215;-64
2023/11/17 14:39:29;;;;;;;2.90;0.90;;;;;;;;;;5111271;28;20289;-64
2023/11/17 14:41:58;;;;;;;1.80;1.00;;;;;;;;;;5108189;28;20220;-64
2023/11/17 14:44:26;;;;;;;1.00;0.77;;;;;;;;;;5120763;28;20216;-64
2023/11/17 14:46:55;;;;;;;1.47;0.83;;;;;;;;;;5119521;28;20196;-64
2023/11/17 14:49:26;;;;;;;1.13;1.03;;;;;;;;;;5119728;28;20209;-64
2023/11/17 14:51:59;;;;;;;2.67;0.97;;;;;;;;;;5110279;27;20253;-64
2023/11/17 14:54:28;;;;;;;1.97;1.10;;;;;;;;;;5099936;28;20205;-64
2023/11/17 14:56:57;;;;;;;1.20;1.10;;;;;;;;;;5112499;28;20201;-64
2023/11/17 14:59:25;;;;;;;1.10;0.90;;;;;;;;;;5103090;28;20201;-64